Time;durP1;ratioP1;P1;durP2;ratioP2;P2;SDS_P1;SDS_P2;PMS_P1;PMS_P2;Temp;Humidity;BMP_temperature;BMP_pressure;BME280_temperature;BME280_humidity;BME280_pressure;Samples;Min_cycle;Max_cycle;Signal;HPM_P1;HPM_P2
2021/06/11 00:00:53;;;;;;;12.47;8.67;;;;;;;16.10;93.29;100968.56;5043129;28;20234;-79
2021/06/11 00:03:39;;;;;;;11.10;9.80;;;;;;;16.12;93.13;100971.13;5032492;28;20234;-79
2021/06/11 00:06:26;;;;;;;11.90;10.30;;;;;;;16.11;93.92;100961.53;5039634;28;20234;-79
2021/06/11 00:09:14;;;;;;;11.17;8.77;;;;;;;16.09;93.84;100965.09;5034038;28;20574;-79
2021/06/11 00:12:00;;;;;;;11.30;10.00;;;;;;;16.06;93.82;100962.59;5037939;28;20201;-79
2021/06/11 00:14:47;;;;;;;10.87;9.77;;;;;;;15.99;94.37;100968.16;5038026;28;20230;-79
2021/06/11 00:17:33;;;;;;;10.17;9.17;;;;;;;15.97;94.86;100962.13;5032950;28;20974;-79
2021/06/11 00:20:20;;;;;;;13.80;10.83;;;;;;;15.99;94.60;100960.28;5036391;28;20258;-79
2021/06/11 00:23:08;;;;;;;11.17;9.80;;;;;;;16.02;94.97;100962.78;5045090;28;20565;-79
2021/06/11 00:25:54;;;;;;;13.13;10.17;;;;;;;16.05;94.53;100957.38;5032010;28;20789;-79
2021/06/11 00:28:41;;;;;;;12.03;10.03;;;;;;;16.02;94.93;100955.75;5042648;28;20245;-79
2021/06/11 00:31:27;;;;;;;10.70;9.60;;;;;;;16.02;95.39;100960.16;5042310;28;20211;-79
2021/06/11 00:34:13;;;;;;;11.30;10.10;;;;;;;15.99;95.36;100963.78;5034565;28;20708;-79
2021/06/11 00:37:00;;;;;;;14.10;11.27;;;;;;;15.92;95.72;100964.97;5042719;28;20241;-79
2021/06/11 00:39:47;;;;;;;12.20;10.93;;;;;;;15.95;94.77;100963.97;5037984;28;20697;-79
2021/06/11 00:42:34;;;;;;;11.13;9.93;;;;;;;15.97;94.92;100960.38;5040445;28;20197;-79
2021/06/11 00:45:20;;;;;;;10.97;9.87;;;;;;;15.92;95.10;100962.34;5045860;28;20775;-79
2021/06/11 00:48:07;;;;;;;11.77;10.57;;;;;;;15.94;95.59;100963.13;5038418;28;20207;-79
2021/06/11 00:50:53;;;;;;;12.00;10.80;;;;;;;15.92;95.64;100962.34;5044417;28;20215;-79
2021/06/11 00:53:39;;;;;;;12.00;10.70;;;;;;;15.87;96.22;100970.41;5041147;28;20219;-79
2021/06/11 00:56:27;;;;;;;10.50;9.50;;;;;;;15.88;96.40;100963.38;5040562;28;20352;-79
2021/06/11 00:59:14;;;;;;;12.03;10.77;;;;;;;15.84;96.16;100965.28;5044034;28;20215;-79
2021/06/11 01:02:00;;;;;;;13.53;10.97;;;;;;;15.80;96.94;100962.88;5030786;28;20308;-79
2021/06/11 01:04:46;;;;;;;11.80;10.40;;;;;;;15.78;96.30;100964.72;5040034;28;20237;-79
2021/06/11 01:07:33;;;;;;;12.03;10.60;;;;;;;15.82;96.87;100974.16;5047262;28;20229;-79
2021/06/11 01:10:21;;;;;;;11.73;10.53;;;;;;;15.77;96.49;100968.25;5041997;28;20245;-79
2021/06/11 01:13:09;;;;;;;10.77;9.67;;;;;;;15.76;96.89;100972.66;5038937;28;20250;-79
2021/06/11 01:15:55;;;;;;;11.77;10.57;;;;;;;15.75;97.08;100970.94;5045771;28;20218;-79
2021/06/11 01:18:42;;;;;;;11.43;10.20;;;;;;;15.71;96.83;100971.97;5043268;28;20210;-79
2021/06/11 01:21:31;;;;;;;11.43;10.33;;;;;;;15.70;96.91;100973.72;5044566;28;20210;-79
2021/06/11 01:24:20;;;;;;;12.07;10.87;;;;;;;15.61;97.79;100978.50;5040718;28;20202;-79
2021/06/11 01:27:08;;;;;;;12.00;10.27;;;;;;;15.58;97.76;100978.63;5039029;28;20264;-79
2021/06/11 01:29:57;;;;;;;11.03;9.87;;;;;;;15.59;98.14;100975.09;5044226;28;20650;-79
2021/06/11 01:32:45;;;;;;;11.97;10.77;;;;;;;15.62;98.67;100981.09;5042233;28;20628;-79
2021/06/11 01:35:39;;;;;;;11.37;10.17;;;;;;;15.58;97.78;100974.22;5034959;28;20305;-79
2021/06/11 01:38:31;;;;;;;11.80;10.37;;;;;;;15.59;97.95;100972.47;5048240;28;20211;-79
2021/06/11 01:41:19;;;;;;;11.73;10.53;;;;;;;15.60;97.69;100968.91;5038787;28;20206;-79
2021/06/11 01:44:09;;;;;;;12.53;11.23;;;;;;;15.52;98.01;100967.44;5040553;28;20212;-79
2021/06/11 01:46:58;;;;;;;12.80;11.50;;;;;;;15.51;98.55;100970.13;5044534;28;20252;-79
2021/06/11 01:49:47;;;;;;;12.87;10.63;;;;;;;15.49;99.07;100972.81;5035035;28;20221;-79
2021/06/11 01:52:35;;;;;;;12.20;11.00;;;;;;;15.50;98.84;100969.28;5038627;28;20294;-79
2021/06/11 01:55:23;;;;;;;11.63;10.20;;;;;;;15.47;98.41;100966.78;5040081;28;20792;-79
2021/06/11 01:58:11;;;;;;;12.33;11.03;;;;;;;15.55;98.33;100965.59;5029286;28;20730;-79
2021/06/11 02:01:00;;;;;;;11.40;10.30;;;;;;;15.52;98.27;100964.81;5043544;28;20235;-79
2021/06/11 02:03:49;;;;;;;12.43;10.90;;;;;;;15.55;98.10;100965.59;5035581;28;20290;-79
2021/06/11 02:06:37;;;;;;;12.50;10.33;;;;;;;15.50;98.08;100960.56;5038254;28;20262;-79
2021/06/11 02:09:24;;;;;;;11.63;10.43;;;;;;;15.50;98.05;100961.41;5046695;28;20240;-79
2021/06/11 02:12:11;;;;;;;11.97;10.77;;;;;;;15.49;98.06;100962.31;5036746;28;20194;-79
2021/06/11 02:14:58;;;;;;;11.77;10.57;;;;;;;15.49;98.17;100959.69;5043181;28;20679;-79
2021/06/11 02:17:49;;;;;;;12.47;10.73;;;;;;;15.52;98.83;100958.72;5043247;28;20289;-79
2021/06/11 02:20:36;;;;;;;11.97;10.67;;;;;;;15.49;97.33;100961.47;5038778;28;20212;-79
2021/06/11 02:23:22;;;;;;;11.80;10.60;;;;;;;15.47;97.77;100956.28;5042406;28;20306;-79
2021/06/11 02:26:11;;;;;;;12.40;11.10;;;;;;;15.50;98.50;100958.78;5040618;28;20298;-79
2021/06/11 02:28:58;;;;;;;11.17;10.00;;;;;;;15.49;97.88;100967.56;5038095;28;20204;-79
2021/06/11 02:31:44;;;;;;;12.63;10.77;;;;;;;15.46;98.07;100965.09;5041004;28;20278;-79
2021/06/11 02:34:32;;;;;;;11.37;10.20;;;;;;;15.44;98.01;100968.69;5038528;28;20215;-79
2021/06/11 02:37:19;;;;;;;12.00;10.80;;;;;;;15.46;97.95;100964.22;5036538;28;20775;-79
2021/06/11 02:40:07;;;;;;;12.00;10.17;;;;;;;15.40;97.60;100962.69;5045657;28;20208;-79
2021/06/11 02:42:57;;;;;;;12.43;11.13;;;;;;;15.37;98.06;100965.44;5036669;28;20299;-79
2021/06/11 02:45:50;;;;;;;11.27;10.07;;;;;;;15.34;98.54;100961.19;5041499;28;20236;-79
2021/06/11 02:48:41;;;;;;;10.97;9.77;;;;;;;15.28;97.60;100971.06;5038955;28;20205;-78
2021/06/11 02:51:32;;;;;;;11.00;9.90;;;;;;;15.34;97.31;100969.06;5059299;22;20304;-69
2021/06/11 02:54:22;;;;;;;11.57;10.37;;;;;;;15.34;97.33;100966.44;5024597;28;20277;-69
2021/06/11 02:57:19;;;;;;;11.37;10.17;;;;;;;15.31;97.43;100974.44;5044559;28;20554;-71
2021/06/11 03:00:08;;;;;;;11.97;10.27;;;;;;;15.28;98.21;100965.81;5045101;28;20232;-72
2021/06/11 03:02:58;;;;;;;11.53;9.93;;;;;;;15.29;98.45;100967.56;5043107;28;20741;-69
2021/06/11 03:05:46;;;;;;;11.00;10.00;;;;;;;15.28;98.15;100969.28;5045399;28;20231;-70
2021/06/11 03:08:38;;;;;;;11.63;10.07;;;;;;;15.25;97.84;100972.06;5046409;28;20200;-69
2021/06/11 03:11:29;;;;;;;10.73;9.50;;;;;;;15.33;98.89;100964.72;5044230;28;20506;-70
2021/06/11 03:14:17;;;;;;;13.83;9.73;;;;;;;15.29;98.49;100970.19;5045825;28;20310;-69
2021/06/11 03:17:04;;;;;;;13.17;10.00;;;;;;;15.30;98.43;100979.75;5044723;28;20674;-72
2021/06/11 03:19:55;;;;;;;10.80;9.70;;;;;;;15.25;98.30;100976.44;5042335;28;20238;-75
2021/06/11 03:22:47;;;;;;;11.03;9.87;;;;;;;15.25;99.26;100981.69;5043845;28;20208;-72
2021/06/11 03:25:41;;;;;;;11.20;9.87;;;;;;;15.30;99.41;100983.25;5038279;28;20260;-72
2021/06/11 03:28:32;;;;;;;11.80;10.37;;;;;;;15.29;98.60;100984.16;5045273;28;20265;-72
2021/06/11 03:31:21;;;;;;;11.33;10.10;;;;;;;15.30;98.85;100980.63;5044392;28;20201;-72
2021/06/11 03:34:15;;;;;;;12.77;11.47;;;;;;;15.33;99.36;100983.09;5041404;28;20211;-74
2021/06/11 03:37:06;;;;;;;11.80;10.43;;;;;;;15.28;98.96;100987.69;5043792;28;20203;-72
2021/06/11 03:39:56;;;;;;;11.33;10.23;;;;;;;15.25;99.32;100977.31;5042579;28;20223;-72
2021/06/11 03:42:44;;;;;;;11.73;10.53;;;;;;;15.27;99.22;100983.38;5041194;28;20623;-72
2021/06/11 03:45:31;;;;;;;13.87;10.07;;;;;;;15.32;98.05;100985.81;5045005;28;20300;-72
2021/06/11 03:48:18;;;;;;;11.07;9.97;;;;;;;15.30;97.33;100991.13;5045587;28;20218;-72
2021/06/11 03:51:08;;;;;;;11.10;9.97;;;;;;;15.35;97.36;100988.31;5046326;28;20215;-72
2021/06/11 03:53:56;;;;;;;11.30;10.00;;;;;;;15.38;97.54;100982.09;5044428;28;20587;-72
2021/06/11 03:56:44;;;;;;;11.57;10.23;;;;;;;15.40;97.42;100978.47;5045877;28;20208;-72
2021/06/11 03:59:34;;;;;;;12.43;10.07;;;;;;;15.48;97.62;100989.53;5046145;28;20224;-72
2021/06/11 04:02:20;;;;;;;11.70;10.03;;;;;;;15.50;96.51;100985.06;5042692;28;20287;-72
2021/06/11 04:05:07;;;;;;;11.10;9.50;;;;;;;15.53;96.13;100986.69;5021402;28;20251;-72
2021/06/11 04:07:55;;;;;;;11.13;9.97;;;;;;;15.59;95.59;100986.47;5046032;28;20288;-72
2021/06/11 04:10:45;;;;;;;10.03;9.03;;;;;;;15.70;96.23;100983.38;5034942;28;20273;-72
2021/06/11 04:13:41;;;;;;;11.03;10.00;;;;;;;15.79;95.19;100990.91;5043953;28;20247;-72
2021/06/11 04:16:34;;;;;;;10.43;9.43;;;;;;;15.81;96.22;100982.97;5049687;28;20265;-71
2021/06/11 04:19:24;;;;;;;10.77;9.23;;;;;;;15.90;96.17;100979.97;5041554;28;20745;-72
2021/06/11 04:22:13;;;;;;;13.13;9.90;;;;;;;16.01;95.50;100987.38;5043777;28;20706;-72
2021/06/11 04:25:01;;;;;;;11.30;9.37;;;;;;;16.02;95.94;100994.34;5047868;28;20677;-72
2021/06/11 04:27:53;;;;;;;10.87;9.77;;;;;;;16.08;94.71;100994.94;5036216;28;20199;-73
2021/06/11 04:30:39;;;;;;;10.40;9.40;;;;;;;16.06;93.10;100999.41;5051427;28;20254;-73
2021/06/11 04:33:28;;;;;;;10.60;9.50;;;;;;;16.11;93.56;100993.94;5047072;28;20499;-72
2021/06/11 04:36:15;;;;;;;11.23;9.53;;;;;;;16.14;93.13;100992.97;5044383;28;20293;-72
2021/06/11 04:39:06;;;;;;;9.80;8.67;;;;;;;16.21;92.31;100999.66;5048040;28;20725;-72
2021/06/11 04:41:53;;;;;;;9.87;8.87;;;;;;;16.33;91.71;100999.13;5038685;28;20269;-72
2021/06/11 04:44:39;;;;;;;9.80;8.83;;;;;;;16.43;91.55;100999.56;5038507;28;20207;-72
2021/06/11 04:47:27;;;;;;;9.53;8.63;;;;;;;16.51;90.96;100997.44;5049025;28;20214;-72
2021/06/11 04:50:15;;;;;;;11.27;8.97;;;;;;;16.65;90.37;100994.19;5041746;28;20246;-71
2021/06/11 04:53:01;;;;;;;10.37;8.13;;;;;;;16.68;89.52;101001.09;5046970;28;20274;-72
2021/06/11 04:55:47;;;;;;;10.87;8.50;;;;;;;16.76;88.09;101010.34;5045045;28;20199;-71
2021/06/11 04:58:35;;;;;;;9.27;8.13;;;;;;;16.88;87.17;101005.47;5038982;28;20247;-72
2021/06/11 05:01:22;;;;;;;8.40;7.60;;;;;;;16.94;84.87;101010.44;5044574;28;20207;-72
2021/06/11 05:04:08;;;;;;;8.47;7.67;;;;;;;17.09;84.94;101006.25;5045856;28;20211;-72
2021/06/11 05:06:56;;;;;;;8.30;7.50;;;;;;;17.18;85.01;101001.41;5040830;28;20672;-75
2021/06/11 05:09:42;;;;;;;7.63;6.93;;;;;;;17.26;82.25;101005.47;5044452;28;20250;-72
2021/06/11 05:12:28;;;;;;;8.97;7.47;;;;;;;17.38;82.44;101010.13;5044987;28;20219;-72
2021/06/11 05:15:16;;;;;;;7.73;6.93;;;;;;;17.47;80.98;101006.19;5046176;28;20219;-73
2021/06/11 05:18:03;;;;;;;7.00;6.30;;;;;;;17.58;80.93;101003.88;5045727;28;20222;-72
2021/06/11 05:20:49;;;;;;;7.73;6.93;;;;;;;17.70;80.46;101005.91;5040473;28;20210;-72
2021/06/11 05:23:37;;;;;;;9.13;6.57;;;;;;;17.81;81.90;101002.72;5046320;28;20231;-72
2021/06/11 05:26:23;;;;;;;7.13;6.43;;;;;;;17.90;80.91;101007.56;5044696;28;20310;-72
2021/06/11 05:29:10;;;;;;;8.17;6.80;;;;;;;17.96;83.07;101007.25;5045026;28;20707;-73
2021/06/11 05:31:56;;;;;;;6.80;6.10;;;;;;;18.07;81.43;101005.84;5043557;28;20905;-73
2021/06/11 05:34:42;;;;;;;6.53;5.93;;;;;;;18.25;80.79;101001.41;5041860;28;20261;-72
2021/06/11 05:37:28;;;;;;;6.90;6.30;;;;;;;18.40;79.98;101005.88;5046573;28;20207;-74
2021/06/11 05:40:17;;;;;;;7.40;6.70;;;;;;;18.61;77.52;101005.66;5043694;28;20215;-72
2021/06/11 05:43:03;;;;;;;7.40;6.70;;;;;;;18.80;77.22;101013.44;5047454;28;20203;-72
2021/06/11 05:45:49;;;;;;;6.60;6.00;;;;;;;19.04;77.21;101017.41;5048756;28;20572;-72
2021/06/11 05:48:38;;;;;;;8.13;6.20;;;;;;;19.19;78.34;101009.56;5045469;28;20241;-72
2021/06/11 05:51:24;;;;;;;6.03;5.50;;;;;;;19.31;74.92;101016.78;5044051;28;20215;-72
2021/06/11 05:54:10;;;;;;;5.80;5.20;;;;;;;19.46;72.12;101023.03;5044206;28;20718;-73
2021/06/11 05:56:58;;;;;;;5.87;5.37;;;;;;;19.56;70.15;101018.03;5045570;28;20218;-72
2021/06/11 05:59:44;;;;;;;5.20;4.70;;;;;;;19.72;70.25;101032.09;5025452;28;20258;-75
2021/06/11 06:02:31;;;;;;;6.27;4.60;;;;;;;19.91;68.73;101033.69;5040242;28;20212;-73
2021/06/11 06:05:17;;;;;;;5.20;4.70;;;;;;;20.09;69.13;101031.75;5037881;28;20213;-71
2021/06/11 06:08:04;;;;;;;5.77;5.27;;;;;;;20.29;67.92;101027.91;5036791;28;20204;-72
2021/06/11 06:10:51;;;;;;;5.37;4.57;;;;;;;20.54;66.91;101030.75;5041326;28;20211;-71
2021/06/11 06:13:38;;;;;;;6.23;5.30;;;;;;;20.75;67.12;101028.59;5042374;28;20215;-72
2021/06/11 06:16:25;;;;;;;5.00;4.50;;;;;;;20.82;66.02;101036.19;5039305;28;20242;-71
2021/06/11 06:19:11;;;;;;;5.80;5.03;;;;;;;20.82;66.67;101022.94;5041015;28;20595;-71
2021/06/11 06:21:58;;;;;;;4.30;3.97;;;;;;;20.78;66.78;101024.91;5030868;28;20680;-72
2021/06/11 06:24:44;;;;;;;4.87;4.43;;;;;;;20.75;65.42;101030.41;5045053;28;20199;-70
2021/06/11 06:27:31;;;;;;;5.00;4.50;;;;;;;20.92;67.54;101022.25;5041900;28;20243;-69
2021/06/11 06:30:22;;;;;;;5.00;4.47;;;;;;;21.08;65.33;101024.78;5044065;28;20628;-72
2021/06/11 06:33:08;;;;;;;5.67;4.23;;;;;;;21.22;63.35;101037.16;5031079;28;20294;-71
2021/06/11 06:35:54;;;;;;;4.50;3.90;;;;;;;21.39;64.11;101022.81;5045444;28;20211;-72
2021/06/11 06:38:41;;;;;;;4.93;4.00;;;;;;;21.58;64.82;101022.44;5039923;28;20552;-72
2021/06/11 06:41:27;;;;;;;5.80;4.50;;;;;;;21.61;61.53;101030.22;5043179;28;20210;-72
2021/06/11 06:44:13;;;;;;;4.60;4.20;;;;;;;21.61;63.60;101026.72;5027563;28;20711;-72
2021/06/11 06:47:01;;;;;;;5.47;4.07;;;;;;;21.66;64.44;101012.19;5030930;28;20408;-71
2021/06/11 06:49:47;;;;;;;4.03;3.73;;;;;;;21.88;61.24;101019.56;5033795;28;20313;-72
2021/06/11 06:52:33;;;;;;;6.07;3.90;;;;;;;21.93;60.69;101014.81;5036197;28;20245;-72
2021/06/11 06:55:20;;;;;;;4.20;3.87;;;;;;;21.94;59.17;101018.31;5044746;28;20226;-72
2021/06/11 06:58:06;;;;;;;4.50;4.00;;;;;;;22.07;59.16;101013.00;5039779;28;20207;-71
2021/06/11 07:00:53;;;;;;;4.23;3.77;;;;;;;22.26;62.45;101013.44;5039722;28;20829;-72
2021/06/11 07:03:40;;;;;;;5.17;3.73;;;;;;;22.37;62.95;101003.91;5023471;28;20199;-71
2021/06/11 07:06:27;;;;;;;3.90;3.60;;;;;;;22.50;59.17;101008.25;5042061;28;20236;-70
2021/06/11 07:09:14;;;;;;;4.45;3.25;;;;;;;22.50;62.10;101008.25;5043236;28;20322;-72
2021/06/11 07:12:00;;;;;;;3.92;3.53;;;;;;;22.50;59.02;101018.88;5043517;28;20675;-72
2021/06/11 07:14:46;;;;;;;3.13;2.83;;;;;;;22.40;59.02;101015.16;5041110;28;20258;-71
2021/06/11 07:17:32;;;;;;;3.33;3.07;;;;;;;22.39;56.86;101023.22;5042389;28;20683;-71
2021/06/11 07:20:20;;;;;;;3.72;2.97;;;;;;;22.49;58.29;101013.66;5040756;28;20234;-72
2021/06/11 07:23:06;;;;;;;3.47;3.17;;;;;;;22.60;58.27;101011.13;5023205;28;20979;-70
2021/06/11 07:25:52;;;;;;;4.33;2.87;;;;;;;22.68;56.31;101016.72;5043735;28;20231;-72
2021/06/11 07:28:39;;;;;;;3.72;3.35;;;;;;;22.71;56.80;101015.66;5043932;28;20238;-70
2021/06/11 07:31:27;;;;;;;3.67;3.33;;;;;;;22.79;56.20;101010.63;5042989;28;20187;-72
2021/06/11 07:34:13;;;;;;;3.20;2.70;;;;;;;22.99;55.56;101017.19;5039779;28;20226;-72
2021/06/11 07:37:01;;;;;;;3.03;2.78;;;;;;;23.04;56.63;101015.06;5049626;28;20715;-70
2021/06/11 07:39:47;;;;;;;4.50;2.70;;;;;;;23.11;54.34;101015.47;5039134;28;20231;-72
2021/06/11 07:42:33;;;;;;;3.65;3.03;;;;;;;23.10;53.69;101024.41;5038286;28;20214;-70
2021/06/11 07:45:19;;;;;;;3.13;2.80;;;;;;;23.28;56.13;101018.72;5041519;28;20830;-71
2021/06/11 07:48:06;;;;;;;5.85;2.95;;;;;;;23.43;54.95;101020.25;5041910;28;20222;-71
2021/06/11 07:50:52;;;;;;;3.10;2.90;;;;;;;23.44;51.30;101027.25;5024647;28;20290;-70
2021/06/11 07:53:41;;;;;;;4.38;3.30;;;;;;;23.54;51.28;101032.75;5045291;28;20202;-70
2021/06/11 07:56:27;;;;;;;3.40;3.10;;;;;;;23.68;54.25;101019.25;5039235;28;20191;-72
2021/06/11 07:59:15;;;;;;;3.30;3.00;;;;;;;23.72;53.40;101022.53;5035958;28;20231;-71
2021/06/11 08:02:01;;;;;;;3.40;3.10;;;;;;;23.70;56.09;101020.00;5043163;28;20224;-71
2021/06/11 08:04:48;;;;;;;6.18;3.13;;;;;;;23.66;53.59;101023.84;5042523;28;20199;-72
2021/06/11 08:07:34;;;;;;;3.85;2.53;;;;;;;23.80;51.81;101023.69;5038335;28;20286;-72
2021/06/11 08:10:22;;;;;;;3.42;3.13;;;;;;;23.91;53.11;101011.38;5041395;28;20231;-72
2021/06/11 08:13:09;;;;;;;3.90;3.50;;;;;;;23.86;56.44;101008.22;5043347;28;20295;-71
2021/06/11 08:15:55;;;;;;;3.47;3.17;;;;;;;23.82;51.02;101023.56;5041703;28;20223;-72
2021/06/11 08:18:41;;;;;;;3.30;3.00;;;;;;;23.88;54.03;101009.78;5039178;28;20813;-71
2021/06/11 08:21:27;;;;;;;3.40;3.10;;;;;;;24.03;53.15;101006.91;5040325;28;20216;-71
2021/06/11 08:24:14;;;;;;;3.67;3.38;;;;;;;24.25;53.76;101004.28;5041144;28;20774;-71
2021/06/11 08:27:01;;;;;;;3.90;3.50;;;;;;;24.31;50.80;101009.16;5043027;28;20640;-71
2021/06/11 08:29:47;;;;;;;5.68;3.00;;;;;;;24.18;50.75;101008.41;5042430;28;20309;-71
2021/06/11 08:32:34;;;;;;;4.00;3.67;;;;;;;24.32;52.48;100996.66;5037504;28;20289;-72
2021/06/11 08:35:20;;;;;;;3.40;3.10;;;;;;;24.44;52.61;100992.19;5034598;28;20345;-72
2021/06/11 08:38:06;;;;;;;3.28;3.08;;;;;;;24.74;51.48;100989.78;5041563;28;20199;-71
2021/06/11 08:40:53;;;;;;;4.50;3.30;;;;;;;24.88;52.66;100990.50;5042634;28;20602;-72
2021/06/11 08:43:41;;;;;;;3.45;3.15;;;;;;;24.72;49.15;100998.88;5037070;28;20196;-71
2021/06/11 08:46:28;;;;;;;3.42;3.13;;;;;;;24.83;51.23;100993.50;5043462;28;20341;-72
2021/06/11 08:49:16;;;;;;;6.40;3.63;;;;;;;24.86;52.05;100987.94;5040987;28;20335;-72
2021/06/11 08:52:03;;;;;;;3.95;3.58;;;;;;;24.70;48.59;101003.50;5043960;28;20243;-72
2021/06/11 08:54:50;;;;;;;3.95;3.60;;;;;;;24.80;51.76;100992.91;5041398;28;20216;-71
2021/06/11 08:57:36;;;;;;;3.67;3.38;;;;;;;24.90;49.22;100993.88;5022486;28;20290;-72
2021/06/11 09:00:24;;;;;;;4.25;3.75;;;;;;;25.09;53.03;100990.56;5044006;28;20223;-72
2021/06/11 09:03:16;;;;;;;3.78;3.42;;;;;;;25.17;49.34;100993.47;5043492;28;20230;-70
2021/06/11 09:06:12;;;;;;;5.60;3.67;;;;;;;25.21;47.55;100994.06;5027978;28;20207;-72
2021/06/11 09:09:01;;;;;;;3.80;3.50;;;;;;;25.22;48.26;100985.06;5045978;28;20223;-69
2021/06/11 09:11:50;;;;;;;3.80;3.50;;;;;;;25.35;50.09;100983.13;5040479;28;20207;-72
2021/06/11 09:14:54;;;;;;;3.95;3.47;;;;;;;25.40;51.46;100975.56;5044349;28;20203;-72
2021/06/11 09:17:44;;;;;;;3.53;3.22;;;;;;;25.16;49.79;100985.59;5044195;28;20271;-72
2021/06/11 09:20:40;;;;;;;3.50;3.10;;;;;;;24.94;48.25;100993.50;5044401;28;20224;-72
2021/06/11 09:23:27;;;;;;;3.60;3.30;;;;;;;24.66;50.84;100986.91;5040274;28;20207;-72
2021/06/11 09:26:13;;;;;;;4.07;3.67;;;;;;;24.39;48.89;100997.88;5044218;28;20207;-72
2021/06/11 09:29:19;;;;;;;3.55;3.25;;;;;;;24.31;47.83;100990.50;5045211;28;20230;-69
2021/06/11 09:32:20;;;;;;;4.05;3.15;;;;;;;24.35;52.08;100981.28;5046223;28;20206;-72
2021/06/11 09:35:10;;;;;;;3.28;3.05;;;;;;;24.63;48.96;100981.81;5042376;28;20237;-72
2021/06/11 09:38:08;;;;;;;4.80;3.03;;;;;;;25.13;48.52;100986.66;5038387;28;20294;-70
2021/06/11 09:41:07;;;;;;;4.05;3.65;;;;;;;25.59;49.43;100985.53;5038659;28;20288;-71
2021/06/11 09:43:55;;;;;;;3.25;3.05;;;;;;;25.78;49.04;100978.66;5029340;28;20238;-72
2021/06/11 09:46:45;;;;;;;3.47;3.17;;;;;;;25.92;49.66;100980.16;5024589;28;20211;-72
2021/06/11 09:49:43;;;;;;;3.60;3.30;;;;;;;25.99;47.09;100976.00;5042464;28;20227;-72
2021/06/11 09:52:35;;;;;;;3.30;3.00;;;;;;;26.27;48.32;100975.28;5042403;28;20258;-71
2021/06/11 09:55:27;;;;;;;3.60;3.30;;;;;;;26.38;47.61;100979.69;5030930;28;20235;-69
2021/06/11 09:58:15;;;;;;;3.00;2.78;;;;;;;26.41;46.18;100979.44;5044544;28;20219;-71
2021/06/11 10:01:08;;;;;;;3.83;3.53;;;;;;;26.11;44.79;100977.63;5042421;28;20203;-72
2021/06/11 10:03:57;;;;;;;4.25;3.85;;;;;;;26.16;45.27;100977.22;5039429;28;20192;-71
2021/06/11 10:06:43;;;;;;;3.72;3.42;;;;;;;26.23;45.34;100981.91;5043336;28;20686;-71
2021/06/11 10:09:31;;;;;;;3.90;3.50;;;;;;;26.38;44.30;100977.03;5043152;28;20313;-72
2021/06/11 10:12:18;;;;;;;4.05;3.70;;;;;;;26.68;45.32;100972.66;5039363;28;20286;-72
2021/06/11 10:15:05;;;;;;;4.43;4.03;;;;;;;26.57;41.01;100975.41;5040316;28;20271;-71
2021/06/11 10:17:52;;;;;;;3.70;3.40;;;;;;;26.69;45.02;100973.53;5042295;28;20298;-70
2021/06/11 10:20:40;;;;;;;3.92;3.63;;;;;;;26.61;42.59;100975.06;5039326;28;20238;-72
2021/06/11 10:23:28;;;;;;;4.03;3.65;;;;;;;26.33;42.26;100987.31;5040907;28;20281;-72
2021/06/11 10:26:16;;;;;;;4.10;3.63;;;;;;;26.12;43.45;100976.66;5039422;28;20195;-72
2021/06/11 10:29:03;;;;;;;4.30;3.90;;;;;;;26.17;44.34;100971.72;5043009;28;20246;-72
2021/06/11 10:31:49;;;;;;;4.15;3.85;;;;;;;26.38;43.42;100971.69;5040331;28;20222;-72
2021/06/11 10:34:51;;;;;;;4.47;4.07;;;;;;;26.49;42.68;100969.91;5041068;28;20246;-71
2021/06/11 10:37:39;;;;;;;4.15;3.85;;;;;;;26.69;45.06;100962.84;5044513;28;20738;-72
2021/06/11 10:40:34;;;;;;;4.05;3.65;;;;;;;26.94;43.80;100962.31;5044577;28;20695;-71
2021/06/11 10:43:24;;;;;;;3.58;3.28;;;;;;;27.17;41.63;100967.41;5042867;28;20218;-72
2021/06/11 10:46:21;;;;;;;5.95;4.80;;;;;;;26.85;39.85;100973.84;5041609;28;20205;-72
2021/06/11 10:49:09;;;;;;;4.93;4.20;;;;;;;26.90;41.67;100971.59;5043420;28;20263;-72
2021/06/11 10:51:56;;;;;;;4.55;4.15;;;;;;;26.96;41.11;100971.03;5042874;28;20207;-72
2021/06/11 10:54:42;;;;;;;5.38;4.35;;;;;;;27.16;41.60;100965.72;5043521;28;20230;-72
2021/06/11 10:57:30;;;;;;;4.13;3.72;;;;;;;27.03;40.88;100968.66;5030391;28;20209;-73
2021/06/11 11:00:33;;;;;;;6.13;4.07;;;;;;;27.13;41.46;100958.81;5044155;28;20945;-71
2021/06/11 11:03:31;;;;;;;3.85;3.55;;;;;;;27.26;42.70;100950.50;5041751;28;20211;-71
2021/06/11 11:06:34;;;;;;;5.18;3.65;;;;;;;27.22;39.90;100962.47;5042788;28;20210;-70
2021/06/11 11:09:20;;;;;;;4.00;3.70;;;;;;;27.16;42.56;100953.19;5045464;28;20913;-72
2021/06/11 11:12:07;;;;;;;4.65;3.50;;;;;;;27.12;40.03;100954.47;5043984;28;20645;-72
2021/06/11 11:14:54;;;;;;;3.92;3.53;;;;;;;27.04;40.78;100946.28;5043432;28;20302;-71
2021/06/11 11:17:53;;;;;;;4.03;3.70;;;;;;;27.23;38.67;100941.91;5040526;28;20202;-72
2021/06/11 11:20:41;;;;;;;3.90;3.60;;;;;;;27.38;40.81;100929.81;5028376;28;20850;-72
2021/06/11 11:23:28;;;;;;;3.53;3.22;;;;;;;27.38;39.83;100930.66;5044562;28;20261;-71
2021/06/11 11:26:14;;;;;;;3.67;3.22;;;;;;;27.45;40.61;100919.38;5044322;28;20203;-72
2021/06/11 11:29:01;;;;;;;3.70;3.40;;;;;;;27.50;39.68;100930.53;5042454;28;20315;-72
2021/06/11 11:31:49;;;;;;;3.80;3.47;;;;;;;27.54;40.57;100926.56;5048066;28;20230;-72
2021/06/11 11:34:36;;;;;;;4.00;3.60;;;;;;;27.54;41.68;100919.34;5029566;28;20247;-71
2021/06/11 11:37:23;;;;;;;3.90;3.60;;;;;;;27.68;41.42;100914.56;5043476;28;20270;-72
2021/06/11 11:40:10;;;;;;;4.15;3.75;;;;;;;27.87;39.42;100914.50;5043317;28;20230;-71
2021/06/11 11:42:58;;;;;;;4.03;3.50;;;;;;;27.92;40.90;100911.44;5042835;28;20354;-70
2021/06/11 11:45:59;;;;;;;3.50;3.20;;;;;;;27.88;40.25;100902.81;5012857;28;20714;-72
2021/06/11 11:48:45;;;;;;;3.60;3.30;;;;;;;28.05;40.46;100897.69;5043227;28;20211;-71
2021/06/11 11:51:33;;;;;;;5.05;3.60;;;;;;;28.03;37.10;100911.22;5040581;28;20217;-72
2021/06/11 11:54:19;;;;;;;3.40;3.10;;;;;;;28.02;38.83;100897.97;5043769;28;20227;-72
2021/06/11 11:57:06;;;;;;;4.05;3.65;;;;;;;28.02;36.96;100892.63;5027928;28;20204;-71
2021/06/11 11:59:52;;;;;;;3.33;3.10;;;;;;;28.33;38.19;100891.34;5025308;28;20706;-71
2021/06/11 12:02:39;;;;;;;3.83;3.53;;;;;;;28.39;38.38;100884.56;5041987;28;20210;-72
2021/06/11 12:05:25;;;;;;;4.32;3.92;;;;;;;28.52;38.97;100876.13;5027737;28;20590;-72
2021/06/11 12:08:13;;;;;;;4.38;3.80;;;;;;;28.62;35.87;100887.69;5041329;28;20211;-72
2021/06/11 12:10:59;;;;;;;3.22;3.00;;;;;;;28.56;35.36;100879.38;5025606;28;20818;-72
2021/06/11 12:13:45;;;;;;;3.85;3.30;;;;;;;28.66;37.72;100867.59;5041841;28;20247;-71
2021/06/11 12:16:32;;;;;;;3.53;3.22;;;;;;;28.69;36.97;100874.50;5025409;28;20955;-70
2021/06/11 12:19:18;;;;;;;3.63;3.33;;;;;;;28.88;36.71;100871.69;5031195;28;20230;-71
2021/06/11 12:22:05;;;;;;;3.83;3.50;;;;;;;28.86;35.61;100865.59;5035361;28;20230;-72
2021/06/11 12:24:52;;;;;;;3.63;3.33;;;;;;;28.84;35.82;100856.88;5048049;28;20663;-72
2021/06/11 12:27:39;;;;;;;3.60;3.30;;;;;;;28.87;36.57;100864.63;5040320;28;20280;-72
2021/06/11 12:30:25;;;;;;;4.00;3.70;;;;;;;28.98;37.79;100849.28;5043371;28;20222;-72
2021/06/11 12:33:11;;;;;;;3.63;3.33;;;;;;;29.05;38.49;100845.81;5042127;28;20246;-71
2021/06/11 12:35:58;;;;;;;4.43;3.35;;;;;;;28.95;37.86;100854.94;5045414;28;20234;-72
2021/06/11 12:38:44;;;;;;;3.70;3.40;;;;;;;29.02;36.27;100846.16;5031961;28;20672;-70
2021/06/11 12:41:35;;;;;;;3.40;3.10;;;;;;;29.04;36.28;100843.28;5045827;28;20683;-71
2021/06/11 12:44:21;;;;;;;3.67;3.38;;;;;;;28.97;37.24;100828.78;5039160;28;20234;-72
2021/06/11 12:47:10;;;;;;;3.95;3.55;;;;;;;29.01;37.47;100838.25;5047212;28;20261;-71
2021/06/11 12:49:56;;;;;;;4.20;3.80;;;;;;;29.05;36.39;100835.06;5033355;28;20329;-70
2021/06/11 12:52:42;;;;;;;4.00;3.70;;;;;;;29.03;36.02;100844.28;5046794;28;20795;-72
2021/06/11 12:55:28;;;;;;;4.30;3.90;;;;;;;29.07;37.89;100837.59;5043054;28;20251;-70